Time;durP1;ratioP1;P1;durP2;ratioP2;P2;SDS_P1;SDS_P2;PMS_P1;PMS_P2;Temp;Humidity;BMP_temperature;BMP_pressure;BME280_temperature;BME280_humidity;BME280_pressure;Samples;Min_cycle;Max_cycle;Signal;HPM_P1;HPM_P2
2022/01/25 00:36:09;;;;;;;4.35;3.72;;;;;;;15.06;58.01;103064.75;20815032;28;20046;-84
2022/01/25 00:46:12;;;;;;;4.78;4.22;;;;;;;15.05;58.13;103071.03;20814414;28;20046;-83
2022/01/25 00:56:14;;;;;;;5.18;4.18;;;;;;;15.10;58.05;103057.44;20781266;28;20041;-83
2022/01/25 01:06:16;;;;;;;5.03;4.00;;;;;;;15.40;57.82;103105.34;20812452;28;20049;-84
2022/01/25 01:57:08;;;;;;;4.57;4.10;;;;;;;15.46;58.09;103102.41;20809759;28;20041;-83
2022/01/25 02:07:09;;;;;;;5.13;4.20;;;;;;;15.39;58.43;103079.47;20792256;28;20049;-83
2022/01/25 02:17:36;;;;;;;5.22;4.07;;;;;;;15.17;58.40;103050.88;20807410;28;20060;-83
2022/01/25 02:27:33;;;;;;;4.10;3.70;;;;;;;15.15;58.66;103038.44;20806472;28;20060;-84
2022/01/25 02:37:35;;;;;;;4.15;3.58;;;;;;;15.42;58.23;103087.38;20807406;28;20048;-84
2022/01/25 02:57:57;;;;;;;4.22;3.80;;;;;;;15.47;58.66;103071.09;20799813;28;20043;-83
2022/01/25 03:08:01;;;;;;;5.65;4.30;;;;;;;15.46;58.16;103067.50;20734577;28;20062;-83
2022/01/25 03:18:12;;;;;;;4.68;4.10;;;;;;;15.35;58.51;103056.38;20723001;28;20060;-83
2022/01/25 03:28:15;;;;;;;5.05;4.55;;;;;;;15.35;58.80;103054.59;20739884;28;20136;-84
2022/01/25 03:38:17;;;;;;;4.70;4.03;;;;;;;15.40;58.47;103058.88;20722223;28;20046;-83
2022/01/25 03:58:21;;;;;;;5.55;4.57;;;;;;;15.44;58.44;103055.97;20721777;28;20054;-83
2022/01/25 04:08:23;;;;;;;5.13;4.00;;;;;;;15.36;58.48;103036.66;20802370;28;20088;-83
2022/01/25 04:18:32;;;;;;;6.78;4.78;;;;;;;15.47;58.52;103049.59;20816722;28;20048;-83
2022/01/25 04:28:33;;;;;;;5.45;4.45;;;;;;;15.43;58.34;103059.59;20815768;28;20056;-83
2022/01/25 04:49:06;;;;;;;5.88;4.68;;;;;;;15.42;58.08;103052.47;20831576;28;20049;-82
2022/01/25 05:09:28;;;;;;;6.72;5.40;;;;;;;15.19;58.06;103000.69;20829541;28;20064;-82
2022/01/25 05:29:50;;;;;;;6.60;5.72;;;;;;;15.05;57.49;102973.63;20800060;28;20051;-83
2022/01/25 05:39:52;;;;;;;5.90;5.25;;;;;;;15.19;57.64;103014.13;20811166;28;20045;-83
2022/01/25 05:49:55;;;;;;;6.50;5.70;;;;;;;15.28;57.62;103044.16;20809554;28;20057;-84
2022/01/25 05:59:57;;;;;;;5.65;4.75;;;;;;;14.94;57.90;102988.34;20807935;28;20541;-83
2022/01/25 06:09:58;;;;;;;5.20;4.57;;;;;;;15.33;57.80;103047.53;20789128;28;20056;-84
2022/01/25 06:20:00;;;;;;;5.50;4.32;;;;;;;15.50;58.18;103061.09;20807303;28;20407;-84
2022/01/25 06:30:03;;;;;;;4.93;4.43;;;;;;;15.27;57.79;102996.81;20790133;28;20054;-83
2022/01/25 06:40:06;;;;;;;4.85;4.07;;;;;;;15.57;57.71;103050.94;20823157;28;20049;-85
2022/01/25 06:50:09;;;;;;;4.65;3.88;;;;;;;14.76;57.51;102909.53;20805345;28;20053;-85
2022/01/25 07:00:15;;;;;;;5.93;4.60;;;;;;;15.27;57.49;102995.00;20805466;28;20483;-85
2022/01/25 07:10:17;;;;;;;;;;;;;;;15.71;57.38;103074.50;20805157;28;20056;-85
2022/01/25 07:20:19;;;;;;;5.22;4.72;;;;;;;14.69;57.47;102893.78;20756106;28;19917;-85
2022/01/25 07:30:21;;;;;;;4.43;3.95;;;;;;;15.66;57.34;103065.78;20804242;28;20053;-85
2022/01/25 07:40:23;;;;;;;4.85;4.35;;;;;;;15.01;57.35;102959.44;20784412;28;20463;-85
2022/01/25 07:50:30;;;;;;;5.13;4.15;;;;;;;14.91;57.45;102916.06;20803804;28;20080;-85
2022/01/25 08:00:37;;;;;;;4.47;3.88;;;;;;;14.74;57.36;102905.19;20819317;28;20062;-85
2022/01/25 08:10:40;;;;;;;5.40;4.05;;;;;;;15.08;57.51;102941.28;20801298;28;20099;-85
2022/01/25 08:20:55;;;;;;;4.28;3.60;;;;;;;15.00;57.28;102936.25;20782163;28;20620;-85
2022/01/25 08:31:02;;;;;;;5.35;4.53;;;;;;;14.76;57.54;102887.25;20816498;28;20123;-85
2022/01/25 08:41:06;;;;;;;5.20;4.28;;;;;;;14.81;57.44;102928.13;20798624;28;20621;-85
2022/01/25 08:51:15;;;;;;;5.38;4.40;;;;;;;14.74;57.38;102932.00;20814947;28;20514;-85
2022/01/25 09:01:31;;;;;;;5.13;4.05;;;;;;;15.75;57.48;103069.88;20780767;28;20080;-87
2022/01/25 09:11:35;;;;;;;5.97;4.78;;;;;;;15.23;57.16;103006.78;20796262;28;20491;-85
2022/01/25 09:21:37;;;;;;;5.00;4.25;;;;;;;14.75;57.35;102906.94;20778578;28;20101;-85
2022/01/25 09:31:47;;;;;;;5.63;4.53;;;;;;;14.67;57.27;102919.78;20778815;28;20099;-85
2022/01/25 09:41:50;;;;;;;4.78;3.72;;;;;;;14.63;57.17;102890.44;20810098;28;20091;-85
2022/01/25 09:51:56;;;;;;;5.38;4.22;;;;;;;14.73;57.40;102903.47;20793290;28;20420;-85
2022/01/25 10:01:58;;;;;;;4.55;4.03;;;;;;;15.77;57.33;103098.38;20808468;28;20057;-85
2022/01/25 10:12:18;;;;;;;5.40;4.30;;;;;;;15.76;57.54;103110.06;20825342;28;20442;-85
2022/01/25 10:22:20;;;;;;;5.20;4.30;;;;;;;14.90;57.60;102967.94;20791829;28;20136;-85
2022/01/25 10:32:22;;;;;;;6.28;4.10;;;;;;;15.47;57.60;103047.81;20791119;28;20445;-87
2022/01/25 10:42:29;;;;;;;5.80;3.80;;;;;;;15.49;57.68;103053.97;20806263;28;20045;-88
2022/01/25 10:52:32;;;;;;;5.20;4.38;;;;;;;15.47;57.78;103061.22;20805831;28;20475;-88
2022/01/25 11:02:34;;;;;;;5.00;4.40;;;;;;;14.87;57.98;102956.50;20805231;28;20103;-88
2022/01/25 11:12:39;;;;;;;4.72;4.25;;;;;;;15.86;57.97;103113.22;20798596;28;20418;-88
2022/01/25 11:23:02;;;;;;;4.70;4.10;;;;;;;14.82;57.65;102924.50;20777725;28;20041;-88
2022/01/25 11:33:13;;;;;;;5.30;4.10;;;;;;;15.89;57.75;103125.66;20806591;28;20054;-88
2022/01/25 11:43:16;;;;;;;5.88;4.32;;;;;;;14.96;57.55;102936.44;20836666;28;20042;-88
2022/01/25 11:53:19;;;;;;;4.25;3.60;;;;;;;15.12;58.06;102952.72;20786483;28;20514;-88
2022/01/25 12:03:31;;;;;;;4.88;4.10;;;;;;;15.41;57.57;103017.66;20801781;28;20070;-85
2022/01/25 12:13:33;;;;;;;4.90;3.90;;;;;;;15.41;57.81;102996.19;20800811;28;20423;-84
2022/01/25 12:23:44;;;;;;;5.50;3.72;;;;;;;14.78;57.75;102874.63;20832266;28;20045;-85
2022/01/25 12:33:46;;;;;;;4.40;3.70;;;;;;;15.84;57.73;103047.97;20800453;28;20057;-84
2022/01/25 12:43:53;;;;;;;4.93;3.80;;;;;;;15.89;57.82;103042.38;20798718;28;20092;-85
2022/01/25 12:54:04;;;;;;;4.82;3.95;;;;;;;15.50;57.42;102963.56;20780361;28;20050;-83
2022/01/25 13:04:11;;;;;;;5.10;4.05;;;;;;;15.23;57.43;102927.19;20798749;28;20052;-83
2022/01/25 13:24:55;;;;;;;5.35;3.60;;;;;;;15.49;57.45;102938.56;20811128;28;20041;-84
2022/01/25 13:35:06;;;;;;;4.72;3.45;;;;;;;15.91;57.26;103000.25;20813402;28;20041;-83
2022/01/25 13:55:34;;;;;;;;;;;;;;;15.93;57.47;102987.59;20795475;28;20055;-83
2022/01/25 14:05:37;;;;;;;5.50;3.95;;;;;;;15.77;57.36;102955.19;20825488;28;19979;-83
2022/01/25 14:26:07;;;;;;;5.18;3.80;;;;;;;15.72;57.55;102960.75;20779813;28;20115;-84
2022/01/25 14:36:09;;;;;;;4.43;3.50;;;;;;;15.76;57.45;102945.41;20806020;28;20076;-83
2022/01/25 14:46:14;;;;;;;5.35;3.67;;;;;;;15.90;57.54;102980.56;20789076;28;20073;-83
2022/01/25 14:56:20;;;;;;;4.97;3.83;;;;;;;15.55;57.63;102944.56;20798146;28;20050;-83
2022/01/25 15:06:21;;;;;;;5.63;4.32;;;;;;;15.95;57.62;102988.41;20772613;28;20062;-83
2022/01/25 15:16:23;;;;;;;4.35;3.35;;;;;;;15.96;57.68;102987.47;20804813;28;20137;-83
2022/01/25 15:26:28;;;;;;;5.07;3.90;;;;;;;15.91;57.59;102968.00;20804367;28;20491;-83
2022/01/25 15:36:31;;;;;;;4.30;3.80;;;;;;;15.97;57.66;102970.41;20804276;28;20053;-91
2022/01/25 15:46:55;;;;;;;4.40;3.45;;;;;;;15.85;57.26;102954.81;20803840;28;20041;-86
2022/01/25 15:56:55;;;;;;;4.50;3.47;;;;;;;15.93;57.43;102947.31;20808715;28;20037;-85
2022/01/25 16:06:57;;;;;;;4.93;4.00;;;;;;;15.81;57.49;102946.91;20801829;28;20068;-86
2022/01/25 16:16:59;;;;;;;5.10;3.97;;;;;;;15.68;57.51;102923.38;20800850;28;20069;-85
2022/01/25 16:27:02;;;;;;;4.43;3.70;;;;;;;15.64;57.47;102907.41;20815903;28;20053;-86
2022/01/25 16:37:05;;;;;;;4.70;3.75;;;;;;;15.42;57.59;102894.13;20815288;28;20069;-85
2022/01/25 16:47:09;;;;;;;5.53;4.05;;;;;;;15.97;57.35;102951.59;20798479;28;20550;-86
2022/01/25 16:57:11;;;;;;;5.78;4.03;;;;;;;15.60;57.84;102883.47;20831287;28;20060;-87
2022/01/25 17:07:13;;;;;;;4.95;4.15;;;;;;;15.59;57.28;102887.09;20796169;28;20068;-85
2022/01/25 17:17:15;;;;;;;5.60;3.65;;;;;;;15.57;57.48;102879.13;20812146;28;20148;-86
2022/01/25 17:27:18;;;;;;;4.30;3.13;;;;;;;15.87;57.14;102918.88;20779204;28;20073;-82
2022/01/25 17:37:20;;;;;;;5.90;3.90;;;;;;;15.99;57.40;102949.69;20794315;28;20501;-84
2022/01/25 17:47:22;;;;;;;4.43;3.28;;;;;;;15.97;57.57;102935.47;20777854;28;20045;-84
2022/01/25 17:57:24;;;;;;;4.32;3.40;;;;;;;15.94;57.33;102941.84;20793285;28;20041;-84
2022/01/25 18:07:26;;;;;;;5.45;3.85;;;;;;;14.91;57.46;102790.00;20777056;28;20061;-84
2022/01/25 18:17:28;;;;;;;4.70;3.53;;;;;;;15.17;57.33;102813.88;20790921;28;20144;-84
2022/01/25 18:27:32;;;;;;;4.43;3.30;;;;;;;15.61;57.43;102907.56;20807433;28;20455;-84
2022/01/25 18:37:34;;;;;;;5.28;3.72;;;;;;;15.76;57.17;102915.84;20790119;28;20503;-85
2022/01/25 18:47:36;;;;;;;4.88;3.70;;;;;;;15.18;57.17;102826.34;20757139;28;20446;-85
2022/01/25 18:57:38;;;;;;;5.57;3.97;;;;;;;14.92;57.34;102805.16;20805594;28;20052;-84
2022/01/25 19:07:43;;;;;;;4.35;3.45;;;;;;;16.00;57.37;102977.41;20789160;28;20053;-85
2022/01/25 19:17:49;;;;;;;5.03;3.70;;;;;;;15.47;57.05;102894.81;20788890;28;20064;-82
2022/01/25 19:28:02;;;;;;;;;;;;;;;15.97;57.13;102981.16;20806313;28;20316;-82
2022/01/25 19:38:05;;;;;;;4.95;3.65;;;;;;;15.53;57.04;102917.78;20820079;28;19921;-82
2022/01/25 19:48:07;;;;;;;5.65;4.30;;;;;;;15.74;57.07;102966.94;20836592;28;20085;-82
2022/01/25 19:58:13;;;;;;;5.13;4.18;;;;;;;15.73;57.33;102962.50;20819089;28;20476;-82
2022/01/25 20:08:21;;;;;;;5.70;4.47;;;;;;;15.34;57.18;102897.19;20801810;28;20057;-82
2022/01/25 20:18:26;;;;;;;5.65;4.30;;;;;;;15.48;57.37;102946.66;20816815;28;20057;-83
2022/01/25 20:28:36;;;;;;;5.47;3.90;;;;;;;15.43;57.65;102935.25;20801036;28;20049;-83
2022/01/25 20:38:39;;;;;;;6.50;4.35;;;;;;;15.37;57.58;102936.41;20784017;28;20048;-83
2022/01/25 20:48:41;;;;;;;6.72;4.47;;;;;;;15.07;57.54;102886.75;20813025;28;20466;-85
2022/01/25 20:58:48;;;;;;;5.97;4.50;;;;;;;15.35;57.60;102949.91;20797237;28;20042;-83
2022/01/25 21:08:51;;;;;;;5.28;4.43;;;;;;;15.19;57.86;102912.16;20812672;28;20060;-84
2022/01/25 21:18:56;;;;;;;6.30;4.20;;;;;;;15.08;57.66;102893.00;20829846;28;20060;-84
2022/01/25 21:29:00;;;;;;;5.63;4.28;;;;;;;15.08;57.64;102898.38;20812628;28;20407;-84
2022/01/25 21:39:02;;;;;;;5.93;4.60;;;;;;;15.06;58.10;102908.28;20793591;28;20506;-84
2022/01/25 21:49:04;;;;;;;6.50;4.63;;;;;;;15.10;57.97;102922.41;20793391;28;20503;-85
2022/01/25 21:59:07;;;;;;;7.05;5.30;;;;;;;14.88;58.05;102892.06;20792365;28;20049;-84
2022/01/25 22:09:15;;;;;;;5.97;4.57;;;;;;;15.02;58.10;102952.25;20705393;28;20136;-84
2022/01/25 22:19:18;;;;;;;8.55;5.95;;;;;;;14.72;57.88;102896.34;20695914;28;20444;-84
2022/01/25 22:29:19;;;;;;;6.05;4.60;;;;;;;14.62;58.03;102885.13;20709180;28;20491;-84
2022/01/25 22:39:21;;;;;;;6.28;4.40;;;;;;;14.74;57.86;102906.06;20742348;28;20042;-84
2022/01/25 22:59:44;;;;;;;6.72;4.65;;;;;;;14.44;58.32;102902.84;20723721;28;20045;-84
2022/01/25 23:09:50;;;;;;;6.55;4.93;;;;;;;14.76;58.16;102946.22;20807820;28;20061;-84
2022/01/25 23:19:58;;;;;;;6.95;4.72;;;;;;;14.43;58.12;102895.75;20821722;28;20136;-83
2022/01/25 23:30:11;;;;;;;6.85;4.63;;;;;;;14.69;58.51;102928.63;20788919;28;20045;-84
2022/01/25 23:40:17;;;;;;;6.60;4.85;;;;;;;14.31;58.13;102863.19;20805173;28;20116;-84
2022/01/25 23:50:31;;;;;;;6.03;4.55;;;;;;;14.18;58.22;102849.41;20803562;28;20132;-84
